Latest Weather Observations for Maatsuyker Island

IDT60801

Issued at 8:05 pm EST Monday 28 July 2014 (issued every 30 minutes, with the page automatically refreshed every 10 minutes)

About weather observations | Map of weather stations | Latest weather observations for TAS | Other Formats
Station Details ID: 094041 Name: MAATSUYKER ISLAND LIGHTHOUSE Lat: -43.66 Lon: 146.27 Height: 146.5 m
Data from the previous 72 hours. | See also: Recent months at Maatsuyker Island
Date/Time
EST
Temp
°C
App
Temp
°C
Dew
Point
Rel
Hum
%
Delta-T
°C
Wind Press
QNH
hPa
Press
MSL
hPa
Rain
since 9 am
mm
Dir
 
Spd
km/h
Gust
km/h
Spd
kts
Gust
kts
28/08:00pm 9.8 1.7 8.6 92 0.6 NNW 41 52 22 28 998.0 - 12.8
28/07:30pm 9.3 2.6 8.1 92 0.6 NNW 33 46 18 25 998.4 - 12.8
28/07:00pm 8.9 1.8 7.9 93 0.5 NNW 35 43 19 23 998.8 - 12.6
28/06:30pm 8.9 0.8 7.2 89 0.8 NNW 39 52 21 28 998.9 - 12.6
28/06:00pm 9.1 0.7 7.2 88 0.9 NNW 41 54 22 29 999.0 999.1 12.6
28/05:40pm 8.8 0.0 8.0 95 0.4 NNW 44 80 24 43 999.1 - 12.2
28/05:30pm 8.8 -4.1 7.8 93 0.5 NW 65 76 35 41 998.9 - 11.2
28/05:24pm 8.8 -2.1 7.3 90 0.7 NW 54 72 29 39 999.2 - 10.6
28/05:00pm 8.4 -4.1 7.6 95 0.4 NW 63 74 34 40 999.1 - 9.4
28/04:32pm 8.6 -1.4 8.0 96 0.3 NNW 50 74 27 40 999.1 - 5.0
28/04:30pm 9.1 0.0 8.3 95 0.4 NNW 46 61 25 33 999.3 - 4.4
28/04:00pm 9.7 1.4 7.6 87 1.0 NNW 41 54 22 29 999.5 - 2.4
28/03:42pm 8.9 -1.5 7.7 92 0.6 NNW 52 70 28 38 999.5 - 2.2
28/03:30pm 8.5 -3.2 7.7 95 0.4 NNW 59 80 32 43 999.7 - 2.2
28/03:23pm 8.7 -4.1 7.9 95 0.4 NNW 65 106 35 57 999.3 - 2.2
28/03:17pm 8.1 -9.0 7.5 96 0.3 NW 87 106 47 57 998.2 - 2.0
28/03:08pm 8.1 -9.3 6.4 89 0.8 NW 87 95 47 51 998.5 - 1.4
28/03:00pm 9.8 -2.7 7.7 87 1.0 NNW 63 91 34 49 998.8 999.5 0.4
28/02:30pm 11.7 0.3 5.0 63 3.1 NNW 54 72 29 39 999.0 - 0.0
28/02:00pm 11.7 -0.8 6.0 68 2.7 NNW 61 83 33 45 998.9 - 0.0
28/01:40pm 11.8 -0.6 6.4 69 2.6 NNW 61 80 33 43 999.4 - 0.0
28/01:30pm 11.9 -1.4 6.0 67 2.8 NNW 65 80 35 43 999.5 - 0.0
28/01:00pm 11.9 -1.8 5.8 66 2.9 NNW 67 89 36 48 999.4 - 0.0
28/12:30pm 12.1 -0.4 5.8 65 3.0 NNW 61 87 33 47 1000.7 - 0.0
28/12:05pm 12.1 -0.7 6.3 67 2.8 NNW 63 85 34 46 1000.9 - 0.0
28/12:00pm 12.2 -0.6 6.4 67 2.8 NNW 63 76 34 41 1001.0 1001.3 0.0
28/11:30am 12.1 -0.4 6.0 66 2.9 NNW 61 76 33 41 1001.4 - 0.0
28/11:06am 12.1 1.0 6.2 67 2.8 NNW 54 74 29 40 1002.1 - 0.0
28/11:00am 12.2 1.1 6.4 67 2.8 NNW 54 70 29 38 1002.5 - 0.0
28/10:35am 11.8 1.4 6.1 68 2.7 NNW 50 69 27 37 1002.7 - 0.0
28/10:30am 11.8 1.1 6.6 70 2.5 NNW 52 65 28 35 1003.0 - 0.0
28/10:00am 11.4 0.6 5.9 69 2.6 NNW 52 65 28 35 1003.0 - 0.0
28/09:30am 11.5 1.6 6.5 71 2.4 NNW 48 67 26 36 1003.3 - 0.0
28/09:29am 11.4 1.5 6.8 73 2.2 NNW 48 67 26 36 1003.3 - 0.0
28/09:00am 11.4 2.4 7.1 75 2.1 NNW 44 63 24 34 1003.0 1003.0 40.2
28/08:30am 11.3 -0.7 6.7 73 2.2 NNW 59 72 32 39 1002.8 - 40.2
28/08:00am 11.3 -0.9 7.4 77 1.9 NNW 61 80 33 43 1002.5 - 40.0
28/07:59am 11.3 -0.8 7.8 79 1.7 NNW 61 80 33 43 1002.5 - 40.0
28/07:30am 11.5 -0.7 8.9 84 1.3 NNW 63 80 34 43 1002.3 - 40.0
28/07:14am 10.9 0.0 8.9 87 1.0 NNW 56 74 30 40 1002.6 - 40.0
28/07:00am 10.7 -2.1 9.5 92 0.6 NNW 67 74 36 40 1002.4 - 39.8
28/06:59am 10.5 -2.3 9.7 95 0.4 NNW 67 78 36 42 1002.3 - 39.6
28/06:40am 11.8 2.7 8.6 81 1.6 NNW 46 65 25 35 1003.1 - 39.0
28/06:30am 12.3 1.9 7.6 73 2.3 NNW 52 65 28 35 1002.8 - 39.0
28/06:11am 12.3 1.0 7.9 74 2.2 NNW 57 76 31 41 1003.0 - 39.0
28/06:00am 12.5 0.7 7.4 71 2.5 NNW 59 74 32 40 1002.8 1002.8 39.0
28/05:47am 12.3 0.1 7.2 71 2.5 NNW 61 85 33 46 1002.5 - 39.0
28/05:30am 12.2 0.1 7.8 74 2.2 NNW 61 74 33 40 1002.6 - 39.0
28/05:00am 12.3 -1.2 8.1 75 2.1 NNW 69 87 37 47 1002.4 - 39.0
28/04:44am 12.3 -0.7 8.7 79 1.8 NNW 67 85 36 46 1002.4 - 39.0
28/04:30am 12.4 0.1 9.9 85 1.3 NNW 65 82 35 44 1002.4 - 39.0
28/04:02am 12.0 0.7 10.7 92 0.7 NW 61 80 33 43 1002.6 - 39.0
28/04:00am 12.0 0.6 10.5 90 0.8 NW 61 74 33 40 1002.9 - 39.0
28/03:33am 11.2 -1.0 10.4 95 0.4 NNW 65 83 35 45 1003.5 - 37.0
28/03:30am 11.3 -1.6 10.5 95 0.4 NW 69 83 37 45 1003.2 - 36.6
28/03:03am 9.8 -3.4 9.4 97 0.2 NW 69 87 37 47 1003.6 - 35.2
28/03:01am 9.7 0.8 9.3 97 0.2 NNW 46 67 25 36 1004.6 - 33.6
28/03:00am 9.4 1.0 9.0 97 0.2 NNW 43 56 23 30 1004.4 1004.4 32.0
28/02:50am 9.9 3.2 9.5 97 0.2 NNW 35 56 19 30 1004.4 - 29.6
28/02:30am 9.2 1.4 8.4 95 0.4 NNW 39 56 21 30 1004.8 - 23.2
28/02:08am 10.8 4.2 10.0 95 0.4 NNW 35 61 19 33 1004.8 - 20.6
28/02:00am 10.8 4.1 9.8 93 0.5 NNW 35 50 19 27 1004.6 - 19.8
28/01:53am 11.1 2.9 9.7 91 0.7 NNW 43 67 23 36 1005.3 - 17.8
28/01:30am 11.0 1.1 9.8 92 0.6 NNW 52 76 28 41 1003.3 - 15.0
28/01:24am 10.8 3.1 10.0 95 0.4 NNW 41 61 22 33 1004.9 - 14.6
28/01:00am 10.5 3.9 9.9 96 0.3 NNW 35 46 19 25 1005.5 - 13.8
28/12:30am 10.8 2.6 9.8 93 0.5 NNW 43 56 23 30 1005.9 - 12.2
28/12:00am 11.0 0.3 9.6 91 0.7 NNW 56 76 30 41 1005.9 1006.0 11.0
 
Date/Time
EST
Temp
°C
App
Temp
°C
Dew
Point
Rel
Hum
%
Delta-T
°C
Wind Press
QNH
hPa
Press
MSL
hPa
Rain
since 9 am
mm
Dir
 
Spd
km/h
Gust
km/h
Spd
kts
Gust
kts
27/11:47pm 10.9 1.3 9.5 91 0.7 NNW 50 72 27 39 1005.8 - 11.0
27/11:30pm 10.9 2.0 9.3 90 0.8 NNW 46 59 25 32 1006.2 - 10.8
27/11:15pm 10.5 3.4 9.5 93 0.5 NNW 37 56 20 30 1006.6 - 10.8
27/11:00pm 10.2 4.1 9.8 97 0.2 N 32 43 17 23 1007.4 - 10.6
27/10:30pm 10.4 4.1 9.8 96 0.3 NNW 33 43 18 23 1008.7 - 7.4
27/10:07pm 10.6 1.0 9.4 92 0.6 NNW 50 69 27 37 1008.4 - 4.8
27/10:00pm 10.5 -0.2 9.7 95 0.4 NNW 56 69 30 37 1007.9 - 3.8
27/09:46pm 10.6 2.2 9.6 93 0.5 NNW 44 63 24 34 1007.8 - 2.8
27/09:30pm 10.7 0.0 9.5 92 0.6 NNW 56 70 30 38 1007.9 - 2.0
27/09:08pm 11.5 2.4 8.5 82 1.5 NNW 46 65 25 35 1008.3 - 1.2
27/09:00pm 11.2 2.1 8.4 83 1.4 NNW 46 65 25 35 1008.0 1008.5 1.2
27/08:52pm 11.1 2.0 8.3 83 1.4 NNW 46 65 25 35 1008.4 - 1.2
27/08:30pm 11.2 2.2 8.8 85 1.2 NNW 46 57 25 31 1008.2 - 1.0
27/08:00pm 12.0 2.6 7.3 73 2.3 NNW 46 61 25 33 1008.2 - 0.4
27/07:30pm 11.7 2.6 8.3 79 1.7 NNW 46 61 25 33 1008.6 - 0.4
27/07:00pm 11.9 3.3 8.1 77 1.9 NNW 43 57 23 31 1008.8 - 0.4
27/06:30pm 11.7 2.6 8.5 81 1.6 NNW 46 61 25 33 1009.0 - 0.4
27/06:01pm 11.3 3.4 9.3 87 1.0 NNW 41 59 22 32 1009.7 - 0.4
27/06:00pm 11.2 2.6 9.0 86 1.1 NNW 44 59 24 32 1009.7 1009.9 0.4
27/05:30pm 12.0 3.4 8.2 77 1.9 NNW 43 61 23 33 1009.7 - 0.0
27/05:21pm 11.9 3.3 8.3 78 1.8 NNW 43 61 23 33 1009.8 - 0.0
27/05:00pm 11.9 3.2 8.3 78 1.8 NNW 44 59 24 32 1009.8 - 0.0
27/04:30pm 11.5 2.8 8.5 82 1.5 NNW 44 59 24 32 1010.0 - 0.0
27/04:00pm 11.4 2.7 8.4 82 1.5 NNW 44 57 24 31 1010.5 - 0.0
27/03:48pm 11.6 2.8 8.2 79 1.7 NNW 44 63 24 34 1010.4 - 0.0
27/03:30pm 12.0 2.6 7.0 71 2.4 NNW 46 59 25 32 1010.5 - 0.0
27/03:11pm 12.0 3.1 7.7 75 2.1 NNW 44 63 24 34 1010.6 - 0.0
27/03:00pm 11.8 5.0 7.9 77 1.9 NNW 33 61 18 33 1010.6 1010.8 0.0
27/02:31pm 12.5 3.5 7.2 70 2.6 NNW 44 63 24 34 1010.8 - 0.0
27/02:30pm 12.5 3.1 7.2 70 2.6 NNW 46 63 25 34 1010.9 - 0.0
27/02:26pm 12.6 3.6 7.1 69 2.7 NNW 44 63 24 34 1010.8 - 0.0
27/02:00pm 12.5 4.4 7.2 70 2.6 NNW 39 56 21 30 1011.3 - 0.0
27/01:47pm 12.8 4.0 7.3 69 2.7 NNW 43 61 23 33 1011.5 - 0.0
27/01:30pm 12.4 4.0 7.3 71 2.5 NNW 41 52 22 28 1011.8 - 0.0
27/01:00pm 12.2 5.2 6.8 69 2.6 NNW 33 48 18 26 1012.7 - 0.0
27/12:30pm 12.2 4.4 6.6 68 2.7 NNW 37 48 20 26 1013.1 - 0.0
27/12:00pm 12.3 4.9 6.7 68 2.7 NNW 35 50 19 27 1013.6 1013.9 0.0
27/11:30am 11.8 4.0 6.8 71 2.4 NNW 37 50 20 27 1014.2 - 0.0
27/11:00am 11.8 4.8 7.0 72 2.3 NNW 33 48 18 26 1015.2 - 0.0
27/10:30am 11.4 4.6 7.0 74 2.1 N 32 41 17 22 1016.0 - 0.0
27/10:00am 11.2 4.1 6.3 72 2.3 NNW 33 44 18 24 1016.5 - 0.0
27/09:30am 10.9 4.4 6.7 75 2.0 NNW 30 41 16 22 1017.1 - 0.0
27/09:00am 10.6 5.8 7.3 80 1.6 NNW 22 39 12 21 1017.1 1017.3 0.0
27/08:30am 10.4 3.7 7.5 82 1.4 NNW 32 44 17 24 1017.4 - 0.0
27/08:00am 10.7 4.5 7.8 82 1.4 NNW 30 39 16 21 1017.6 - 0.0
27/07:30am 10.1 4.9 7.2 82 1.4 N 24 33 13 18 1017.7 - 0.0
27/07:00am 10.4 4.3 6.8 78 1.7 N 28 39 15 21 1017.8 - 0.0
27/06:30am 10.4 5.1 6.8 78 1.7 NNW 24 32 13 17 1017.9 - 0.0
27/06:00am 10.2 6.7 7.0 80 1.5 NNW 15 32 8 17 1018.1 1018.2 0.0
27/05:30am 9.7 4.5 7.2 84 1.2 N 24 32 13 17 1018.2 - 0.0
27/05:00am 9.8 5.0 7.5 85 1.1 NNW 22 30 12 16 1018.3 - 0.0
27/04:30am 9.8 4.6 7.1 83 1.3 N 24 33 13 18 1018.3 - 0.0
27/04:00am 10.2 5.2 7.9 86 1.1 NNW 24 32 13 17 1018.5 - 0.0
27/03:30am 10.0 5.8 8.2 88 0.9 NNW 20 28 11 15 1019.1 - 0.0
27/03:00am 9.7 5.4 7.8 88 0.9 N 20 28 11 15 1019.2 1019.5 0.0
27/02:30am 10.0 6.8 8.6 91 0.7 NNW 15 22 8 12 1019.4 - 0.0
27/02:00am 10.0 5.9 8.6 91 0.7 NNW 20 28 11 15 1019.7 - 0.0
27/01:30am 9.8 5.3 8.4 91 0.7 N 22 30 12 16 1019.6 - 0.0
27/01:00am 10.0 5.6 8.8 92 0.6 NNW 22 30 12 16 1019.8 - 0.0
27/12:30am 10.3 5.9 9.1 92 0.6 NNW 22 26 12 14 1020.0 - 0.0
27/12:00am 10.3 6.5 9.1 92 0.6 N 19 24 10 13 1020.2 1020.4 0.0
 
Date/Time
EST
Temp
°C
App
Temp
°C
Dew
Point
Rel
Hum
%
Delta-T
°C
Wind Press
QNH
hPa
Press
MSL
hPa
Rain
since 9 am
mm
Dir
 
Spd
km/h
Gust
km/h
Spd
kts
Gust
kts
26/11:30pm 10.3 6.5 8.9 91 0.7 NNW 19 24 10 13 1020.7 - 0.0
26/11:00pm 10.4 6.5 9.4 93 0.5 NNW 20 26 11 14 1020.8 - 0.0
26/10:30pm 10.4 6.7 9.6 95 0.4 NNW 19 22 10 12 1021.2 - 0.0
26/10:00pm 10.2 6.2 9.0 92 0.6 N 20 22 11 12 1021.0 - 0.0
26/09:30pm 10.2 6.2 8.4 89 0.9 N 19 22 10 12 1021.1 - 0.0
26/09:00pm 10.3 6.8 8.9 91 0.7 N 17 20 9 11 1021.1 1021.4 0.0
26/08:30pm 10.4 7.1 9.4 93 0.5 N 17 20 9 11 1020.9 - 0.0
26/08:00pm 10.6 7.3 9.6 93 0.5 NNW 17 20 9 11 1020.7 - 0.0
26/07:30pm 11.2 8.0 9.8 91 0.7 NNW 17 20 9 11 1020.6 - 0.0
26/07:00pm 11.3 8.4 9.7 90 0.8 NNW 15 19 8 10 1020.4 - 0.0
26/06:30pm 11.2 7.9 9.4 89 0.9 NNW 17 20 9 11 1020.4 - 0.0
26/06:00pm 11.2 7.3 8.8 85 1.2 NNW 19 22 10 12 1020.4 1020.6 0.0
26/05:30pm 11.4 7.5 9.4 87 1.0 WNW 20 24 11 13 1020.3 - 0.0
26/05:00pm 11.7 9.4 8.9 83 1.4 NW 11 11 6 6 1020.0 - 0.0
26/04:30pm 12.2 9.6 9.2 82 1.5 NW 13 15 7 8 1019.8 - 0.0
26/04:00pm 12.6 10.9 9.7 82 1.5 NW 9 11 5 6 1019.6 - 0.0
26/03:30pm 13.2 10.8 9.9 80 1.7 NW 13 15 7 8 1019.4 - 0.0
26/03:00pm 13.2 12.0 9.5 78 1.9 NW 6 15 3 8 1019.4 1019.6 0.0
26/02:30pm 13.1 11.3 9.4 78 1.9 W 9 13 5 7 1019.4 - 0.0
26/02:00pm 12.8 11.3 9.3 79 1.8 WSW 7 11 4 6 1019.3 - 0.0
26/01:30pm 13.3 11.5 9.6 78 1.9 NNW 9 13 5 7 1019.3 - 0.0
26/01:00pm 13.1 11.3 9.6 79 1.8 NW 9 11 5 6 1019.5 - 0.0
26/12:30pm 12.4 9.0 7.7 73 2.3 NNW 15 17 8 9 1019.7 - 0.0
26/12:00pm 12.1 9.2 8.0 76 2.0 N 13 17 7 9 1020.0 1020.1 0.0
26/11:30am 11.8 8.2 8.4 80 1.7 N 17 20 9 11 1020.0 - 0.0
26/11:00am 11.1 7.5 8.5 84 1.3 N 17 20 9 11 1020.3 - 0.0
26/10:30am 10.7 7.2 8.7 87 1.0 N 17 19 9 10 1020.5 - 0.0
26/10:00am 10.4 7.1 7.9 84 1.2 N 15 17 8 9 1020.4 - 0.0
26/09:30am 10.1 7.3 8.7 91 0.7 N 13 17 7 9 1020.1 - 0.0
26/09:00am 9.8 8.3 8.6 92 0.6 N 6 15 3 8 1020.1 1020.3 0.2
26/08:30am 10.1 7.0 8.9 92 0.6 N 15 19 8 10 1019.8 - 0.2
26/08:00am 10.4 7.8 9.2 92 0.6 NNW 13 17 7 9 1019.6 - 0.2
26/07:30am 9.7 7.3 8.5 92 0.6 NNW 11 15 6 8 1019.3 - 0.2
26/07:00am 9.5 6.1 7.8 89 0.8 N 15 17 8 9 1019.1 - 0.0
26/06:30am 9.3 7.2 8.1 92 0.6 N 9 13 5 7 1018.9 - 0.0
26/06:00am 9.7 8.2 8.5 92 0.6 N 6 11 3 6 1018.9 1019.1 0.0
26/05:30am 10.4 9.5 9.2 92 0.6 ENE 4 9 2 5 1018.5 - 0.0
26/05:00am 9.3 7.1 7.8 90 0.7 N 9 13 5 7 1018.4 - 0.0
26/04:30am 10.1 9.1 7.4 83 1.3 NNE 2 6 1 3 1018.2 - 0.0
26/04:00am 10.4 10.1 8.8 90 0.8 CALM 0 4 0 2 1018.0 - 0.0
26/03:30am 10.6 10.1 9.2 91 0.7 E 2 7 1 4 1018.2 - 0.0
26/03:00am 10.1 9.1 7.4 83 1.3 ENE 2 6 1 3 1018.3 1018.5 0.0
26/02:30am 10.8 8.8 6.1 73 2.2 NE 6 9 3 5 1018.2 - 0.0
26/02:00am 10.6 9.8 8.1 84 1.2 ENE 2 7 1 4 1018.1 - 0.0
26/01:30am 10.8 9.3 8.4 85 1.2 ENE 6 9 3 5 1018.0 - 0.0
26/01:00am 10.7 10.2 9.3 91 0.7 N 2 7 1 4 1018.0 - 0.0
26/12:30am 10.6 10.4 9.2 91 0.7 CALM 0 6 0 3 1018.2 - 0.0
26/12:00am 11.1 10.4 9.9 92 0.6 NW 4 11 2 6 1018.1 1018.3 0.0
 
Date/Time
EST
Temp
°C
App
Temp
°C
Dew
Point
Rel
Hum
%
Delta-T
°C
Wind Press
QNH
hPa
Press
MSL
hPa
Rain
since 9 am
mm
Dir
 
Spd
km/h
Gust
km/h
Spd
kts
Gust
kts
25/11:30pm 11.0 10.2 9.6 91 0.7 NW 4 7 2 4 1018.2 - 0.0
25/11:00pm 11.3 9.2 9.7 90 0.8 SE 11 13 6 7 1018.1 - 0.0
25/10:30pm 10.5 10.2 8.7 89 0.9 CALM 0 6 0 3 1018.2 - 0.0
25/10:00pm 11.1 8.8 9.1 87 1.0 SE 11 13 6 7 1018.1 - 0.0
25/09:30pm 11.2 9.3 9.0 86 1.1 SE 9 13 5 7 1018.1 - 0.0
25/09:00pm 11.4 10.1 9.2 86 1.1 E 6 7 3 4 1018.2 1018.4 0.0
25/08:30pm 11.4 8.4 9.4 87 1.0 SSE 15 17 8 9 1018.1 - 0.0

Other Formats:

Comma delimited format used in spreadsheet applications
http://www.bom.gov.au/fwo/IDT60801/IDT60801.94962.axf

JavaScript Object Notation format (JSON) in row-major order
http://www.bom.gov.au/fwo/IDT60801/IDT60801.94962.json